sensor_id;sensor_type;location;lat;lon;timestamp;temperature;humidity
53268;DHT22;39156;51.176;6.738;2023-01-10T00:01:31;5.60;78.20
53268;DHT22;39156;51.176;6.738;2023-01-10T00:03:57;5.60;78.30
53268;DHT22;39156;51.176;6.738;2023-01-10T00:06:23;5.60;77.70
53268;DHT22;39156;51.176;6.738;2023-01-10T00:08:49;5.60;77.80
53268;DHT22;39156;51.176;6.738;2023-01-10T00:11:15;5.70;77.70
53268;DHT22;39156;51.176;6.738;2023-01-10T00:13:59;5.60;77.80
53268;DHT22;39156;51.176;6.738;2023-01-10T00:16:25;5.70;77.60
53268;DHT22;39156;51.176;6.738;2023-01-10T00:18:50;5.70;77.60
53268;DHT22;39156;51.176;6.738;2023-01-10T00:21:16;5.70;77.50
53268;DHT22;39156;51.176;6.738;2023-01-10T00:23:42;5.70;77.50
53268;DHT22;39156;51.176;6.738;2023-01-10T00:26:09;5.70;77.50
53268;DHT22;39156;51.176;6.738;2023-01-10T00:28:35;5.70;77.50
53268;DHT22;39156;51.176;6.738;2023-01-10T00:31:03;5.60;77.30
53268;DHT22;39156;51.176;6.738;2023-01-10T00:33:33;5.80;77.40
53268;DHT22;39156;51.176;6.738;2023-01-10T00:36:01;5.80;77.30
53268;DHT22;39156;51.176;6.738;2023-01-10T00:38:28;5.80;77.30
53268;DHT22;39156;51.176;6.738;2023-01-10T00:40:55;5.80;77.30
53268;DHT22;39156;51.176;6.738;2023-01-10T00:43:21;5.80;77.20
53268;DHT22;39156;51.176;6.738;2023-01-10T00:46:07;5.80;77.10
53268;DHT22;39156;51.176;6.738;2023-01-10T00:48:33;5.90;77.10
53268;DHT22;39156;51.176;6.738;2023-01-10T00:50:59;5.80;77.00
53268;DHT22;39156;51.176;6.738;2023-01-10T00:53:25;5.90;77.00
53268;DHT22;39156;51.176;6.738;2023-01-10T00:55:52;5.90;77.00
53268;DHT22;39156;51.176;6.738;2023-01-10T00:58:19;5.90;76.90
53268;DHT22;39156;51.176;6.738;2023-01-10T01:00:45;5.90;76.80
53268;DHT22;39156;51.176;6.738;2023-01-10T01:03:11;5.90;76.70
53268;DHT22;39156;51.176;6.738;2023-01-10T01:05:42;6.00;76.70
53268;DHT22;39156;51.176;6.738;2023-01-10T01:08:09;5.90;76.60
53268;DHT22;39156;51.176;6.738;2023-01-10T01:10:35;5.90;76.60
53268;DHT22;39156;51.176;6.738;2023-01-10T01:13:10;6.00;76.90
53268;DHT22;39156;51.176;6.738;2023-01-10T01:15:38;5.90;76.40
53268;DHT22;39156;51.176;6.738;2023-01-10T01:18:05;5.90;76.40
53268;DHT22;39156;51.176;6.738;2023-01-10T01:20:31;5.90;76.30
53268;DHT22;39156;51.176;6.738;2023-01-10T01:22:57;6.00;76.40
53268;DHT22;39156;51.176;6.738;2023-01-10T01:25:25;6.00;76.30
53268;DHT22;39156;51.176;6.738;2023-01-10T01:27:51;6.10;76.30
53268;DHT22;39156;51.176;6.738;2023-01-10T01:30:17;6.00;76.30
53268;DHT22;39156;51.176;6.738;2023-01-10T01:32:42;6.00;76.20
53268;DHT22;39156;51.176;6.738;2023-01-10T01:35:12;5.90;76.10
53268;DHT22;39156;51.176;6.738;2023-01-10T01:37:39;6.00;76.10
53268;DHT22;39156;51.176;6.738;2023-01-10T01:40:06;6.00;76.10
53268;DHT22;39156;51.176;6.738;2023-01-10T01:42:34;6.00;76.00
53268;DHT22;39156;51.176;6.738;2023-01-10T01:45:33;6.00;75.70
53268;DHT22;39156;51.176;6.738;2023-01-10T01:48:16;6.00;75.80
53268;DHT22;39156;51.176;6.738;2023-01-10T01:51:12;6.00;75.70
53268;DHT22;39156;51.176;6.738;2023-01-10T01:53:48;6.00;75.70
53268;DHT22;39156;51.176;6.738;2023-01-10T01:56:20;6.00;75.60
53268;DHT22;39156;51.176;6.738;2023-01-10T01:58:49;6.10;75.50
53268;DHT22;39156;51.176;6.738;2023-01-10T02:01:32;6.00;75.40
53268;DHT22;39156;51.176;6.738;2023-01-10T02:04:10;6.00;75.10
53268;DHT22;39156;51.176;6.738;2023-01-10T02:06:46;6.00;75.00
53268;DHT22;39156;51.176;6.738;2023-01-10T02:09:21;6.00;75.00
53268;DHT22;39156;51.176;6.738;2023-01-10T02:12:19;5.90;74.80
53268;DHT22;39156;51.176;6.738;2023-01-10T02:14:48;6.00;74.80
53268;DHT22;39156;51.176;6.738;2023-01-10T02:17:15;6.00;74.80
53268;DHT22;39156;51.176;6.738;2023-01-10T02:19:49;6.00;74.80
53268;DHT22;39156;51.176;6.738;2023-01-10T02:31:18;5.80;75.40
53268;DHT22;39156;51.176;6.738;2023-01-10T02:39:35;5.70;74.60
53268;DHT22;39156;51.176;6.738;2023-01-10T02:42:11;5.70;74.60
53268;DHT22;39156;51.176;6.738;2023-01-10T02:44:47;5.60;74.70
53268;DHT22;39156;51.176;6.738;2023-01-10T02:47:15;5.60;74.90
53268;DHT22;39156;51.176;6.738;2023-01-10T02:49:51;5.60;74.90
53268;DHT22;39156;51.176;6.738;2023-01-10T02:52:24;5.60;75.00
53268;DHT22;39156;51.176;6.738;2023-01-10T02:54:55;5.50;74.80
53268;DHT22;39156;51.176;6.738;2023-01-10T02:57:54;5.50;74.60
53268;DHT22;39156;51.176;6.738;2023-01-10T03:00:44;5.40;74.70
53268;DHT22;39156;51.176;6.738;2023-01-10T03:03:22;5.40;74.50
53268;DHT22;39156;51.176;6.738;2023-01-10T03:09:05;5.40;74.70
53268;DHT22;39156;51.176;6.738;2023-01-10T03:11:39;5.40;74.60
53268;DHT22;39156;51.176;6.738;2023-01-10T03:14:24;5.30;74.60
53268;DHT22;39156;51.176;6.738;2023-01-10T03:17:01;5.30;74.80
53268;DHT22;39156;51.176;6.738;2023-01-10T03:19:33;5.30;74.80
53268;DHT22;39156;51.176;6.738;2023-01-10T03:22:01;5.20;74.80
53268;DHT22;39156;51.176;6.738;2023-01-10T03:24:35;5.10;74.70
53268;DHT22;39156;51.176;6.738;2023-01-10T03:30:26;5.20;75.00
53268;DHT22;39156;51.176;6.738;2023-01-10T03:32:54;5.00;75.10
53268;DHT22;39156;51.176;6.738;2023-01-10T03:35:25;5.10;75.00
53268;DHT22;39156;51.176;6.738;2023-01-10T03:38:07;5.00;75.00
53268;DHT22;39156;51.176;6.738;2023-01-10T03:40:44;5.00;75.10
53268;DHT22;39156;51.176;6.738;2023-01-10T03:44:01;4.90;75.00
53268;DHT22;39156;51.176;6.738;2023-01-10T03:50:09;4.90;75.10
53268;DHT22;39156;51.176;6.738;2023-01-10T03:52:43;4.80;75.10
53268;DHT22;39156;51.176;6.738;2023-01-10T03:55:11;4.80;75.10
53268;DHT22;39156;51.176;6.738;2023-01-10T03:57:41;4.80;75.20
53268;DHT22;39156;51.176;6.738;2023-01-10T04:00:08;4.70;75.20
53268;DHT22;39156;51.176;6.738;2023-01-10T04:02:34;4.80;75.30
53268;DHT22;39156;51.176;6.738;2023-01-10T04:04:59;4.70;75.40
53268;DHT22;39156;51.176;6.738;2023-01-10T04:07:26;4.70;75.40
53268;DHT22;39156;51.176;6.738;2023-01-10T04:09:52;4.70;75.50
53268;DHT22;39156;51.176;6.738;2023-01-10T04:12:18;4.70;75.60
53268;DHT22;39156;51.176;6.738;2023-01-10T04:14:43;4.70;75.60
53268;DHT22;39156;51.176;6.738;2023-01-10T04:17:13;4.80;75.80
53268;DHT22;39156;51.176;6.738;2023-01-10T04:19:40;4.90;75.80
53268;DHT22;39156;51.176;6.738;2023-01-10T04:22:07;4.80;75.70
53268;DHT22;39156;51.176;6.738;2023-01-10T04:24:33;4.80;76.20
53268;DHT22;39156;51.176;6.738;2023-01-10T04:26:59;4.90;75.80
53268;DHT22;39156;51.176;6.738;2023-01-10T04:29:25;5.00;75.20
53268;DHT22;39156;51.176;6.738;2023-01-10T04:31:51;5.00;75.40
53268;DHT22;39156;51.176;6.738;2023-01-10T04:34:17;4.90;75.30
53268;DHT22;39156;51.176;6.738;2023-01-10T04:36:44;4.90;75.30
53268;DHT22;39156;51.176;6.738;2023-01-10T04:39:11;4.90;75.50
53268;DHT22;39156;51.176;6.738;2023-01-10T04:41:37;5.00;75.40
53268;DHT22;39156;51.176;6.738;2023-01-10T04:44:03;5.10;75.50
53268;DHT22;39156;51.176;6.738;2023-01-10T04:46:29;5.00;75.50
53268;DHT22;39156;51.176;6.738;2023-01-10T04:48:56;5.00;75.50
53268;DHT22;39156;51.176;6.738;2023-01-10T04:51:23;5.10;75.50
53268;DHT22;39156;51.176;6.738;2023-01-10T04:53:49;5.00;75.50
53268;DHT22;39156;51.176;6.738;2023-01-10T04:56:17;5.10;75.40
53268;DHT22;39156;51.176;6.738;2023-01-10T04:58:44;5.20;75.40
53268;DHT22;39156;51.176;6.738;2023-01-10T05:01:17;5.30;75.50
53268;DHT22;39156;51.176;6.738;2023-01-10T05:03:57;5.20;75.40
53268;DHT22;39156;51.176;6.738;2023-01-10T05:06:23;5.20;75.30
53268;DHT22;39156;51.176;6.738;2023-01-10T05:08:49;5.30;75.20
53268;DHT22;39156;51.176;6.738;2023-01-10T05:11:15;5.30;75.20
53268;DHT22;39156;51.176;6.738;2023-01-10T05:13:41;5.20;75.00
53268;DHT22;39156;51.176;6.738;2023-01-10T05:16:07;5.30;75.10
53268;DHT22;39156;51.176;6.738;2023-01-10T05:18:33;5.40;75.00
53268;DHT22;39156;51.176;6.738;2023-01-10T05:21:04;5.20;74.80
53268;DHT22;39156;51.176;6.738;2023-01-10T05:23:31;5.30;74.70
53268;DHT22;39156;51.176;6.738;2023-01-10T05:26:07;5.30;74.60
53268;DHT22;39156;51.176;6.738;2023-01-10T05:28:35;5.30;74.40
53268;DHT22;39156;51.176;6.738;2023-01-10T05:31:01;5.30;74.40
53268;DHT22;39156;51.176;6.738;2023-01-10T05:33:27;5.20;74.40
53268;DHT22;39156;51.176;6.738;2023-01-10T05:35:53;5.20;74.40
53268;DHT22;39156;51.176;6.738;2023-01-10T05:38:18;5.10;74.30
53268;DHT22;39156;51.176;6.738;2023-01-10T05:40:44;5.10;74.40
53268;DHT22;39156;51.176;6.738;2023-01-10T05:43:10;5.00;74.40
53268;DHT22;39156;51.176;6.738;2023-01-10T05:45:37;5.00;74.50
53268;DHT22;39156;51.176;6.738;2023-01-10T05:48:02;5.00;74.50
53268;DHT22;39156;51.176;6.738;2023-01-10T05:50:28;4.90;74.60
53268;DHT22;39156;51.176;6.738;2023-01-10T05:52:54;5.00;74.70
53268;DHT22;39156;51.176;6.738;2023-01-10T05:55:22;4.90;74.70
53268;DHT22;39156;51.176;6.738;2023-01-10T05:57:47;4.90;74.80
53268;DHT22;39156;51.176;6.738;2023-01-10T06:00:14;4.80;74.80
53268;DHT22;39156;51.176;6.738;2023-01-10T06:02:40;4.80;74.90
53268;DHT22;39156;51.176;6.738;2023-01-10T06:05:06;4.80;74.90
53268;DHT22;39156;51.176;6.738;2023-01-10T06:07:32;4.70;75.00
53268;DHT22;39156;51.176;6.738;2023-01-10T06:09:57;4.80;75.10
53268;DHT22;39156;51.176;6.738;2023-01-10T06:12:23;4.70;75.10
53268;DHT22;39156;51.176;6.738;2023-01-10T06:14:48;4.70;75.30
53268;DHT22;39156;51.176;6.738;2023-01-10T06:17:14;4.70;75.40
53268;DHT22;39156;51.176;6.738;2023-01-10T06:19:40;4.60;75.40
53268;DHT22;39156;51.176;6.738;2023-01-10T06:22:05;4.60;75.60
53268;DHT22;39156;51.176;6.738;2023-01-10T06:24:31;4.70;75.70
53268;DHT22;39156;51.176;6.738;2023-01-10T06:26:57;4.70;75.80
53268;DHT22;39156;51.176;6.738;2023-01-10T06:29:22;4.70;75.80
53268;DHT22;39156;51.176;6.738;2023-01-10T06:31:48;4.70;75.80
53268;DHT22;39156;51.176;6.738;2023-01-10T06:34:14;4.70;75.80
53268;DHT22;39156;51.176;6.738;2023-01-10T06:36:39;4.70;75.90
53268;DHT22;39156;51.176;6.738;2023-01-10T06:39:05;4.80;76.00
53268;DHT22;39156;51.176;6.738;2023-01-10T06:41:31;4.80;76.00
53268;DHT22;39156;51.176;6.738;2023-01-10T06:43:56;4.80;75.90
53268;DHT22;39156;51.176;6.738;2023-01-10T06:46:22;4.90;75.90
53268;DHT22;39156;51.176;6.738;2023-01-10T06:48:48;4.90;75.80
53268;DHT22;39156;51.176;6.738;2023-01-10T06:51:15;4.90;75.70
53268;DHT22;39156;51.176;6.738;2023-01-10T06:53:42;4.90;75.50
53268;DHT22;39156;51.176;6.738;2023-01-10T06:56:08;5.00;75.50
53268;DHT22;39156;51.176;6.738;2023-01-10T06:58:35;5.10;75.50
53268;DHT22;39156;51.176;6.738;2023-01-10T07:01:06;5.00;75.30
53268;DHT22;39156;51.176;6.738;2023-01-10T07:03:37;5.00;75.20
53268;DHT22;39156;51.176;6.738;2023-01-10T07:06:05;5.10;75.10
53268;DHT22;39156;51.176;6.738;2023-01-10T07:08:38;5.00;75.30
53268;DHT22;39156;51.176;6.738;2023-01-10T07:11:08;5.10;74.90
53268;DHT22;39156;51.176;6.738;2023-01-10T07:13:35;5.10;74.70
53268;DHT22;39156;51.176;6.738;2023-01-10T07:16:08;5.00;74.70
53268;DHT22;39156;51.176;6.738;2023-01-10T07:18:37;4.90;74.70
53268;DHT22;39156;51.176;6.738;2023-01-10T07:21:03;4.90;74.70
53268;DHT22;39156;51.176;6.738;2023-01-10T07:23:29;4.90;74.70
53268;DHT22;39156;51.176;6.738;2023-01-10T07:25:56;4.80;74.70
53268;DHT22;39156;51.176;6.738;2023-01-10T07:28:23;4.80;74.80
53268;DHT22;39156;51.176;6.738;2023-01-10T07:30:49;4.80;74.90
53268;DHT22;39156;51.176;6.738;2023-01-10T07:33:14;4.80;75.00
53268;DHT22;39156;51.176;6.738;2023-01-10T07:35:40;4.80;75.00
53268;DHT22;39156;51.176;6.738;2023-01-10T07:38:06;4.80;75.00
53268;DHT22;39156;51.176;6.738;2023-01-10T07:40:33;4.70;75.00
53268;DHT22;39156;51.176;6.738;2023-01-10T07:43:00;4.70;75.30
53268;DHT22;39156;51.176;6.738;2023-01-10T07:45:28;4.70;75.00
53268;DHT22;39156;51.176;6.738;2023-01-10T07:47:59;4.60;75.10
53268;DHT22;39156;51.176;6.738;2023-01-10T07:50:27;4.80;75.40
53268;DHT22;39156;51.176;6.738;2023-01-10T07:52:54;4.70;75.30
53268;DHT22;39156;51.176;6.738;2023-01-10T07:55:21;4.60;75.40
53268;DHT22;39156;51.176;6.738;2023-01-10T07:57:49;4.60;75.50
53268;DHT22;39156;51.176;6.738;2023-01-10T08:00:16;4.60;75.60
53268;DHT22;39156;51.176;6.738;2023-01-10T08:02:43;4.60;75.60
53268;DHT22;39156;51.176;6.738;2023-01-10T08:05:09;4.60;75.60
53268;DHT22;39156;51.176;6.738;2023-01-10T08:07:36;4.60;75.50
53268;DHT22;39156;51.176;6.738;2023-01-10T08:10:03;4.60;75.50
53268;DHT22;39156;51.176;6.738;2023-01-10T08:12:30;4.70;75.50
53268;DHT22;39156;51.176;6.738;2023-01-10T08:14:56;4.80;75.70
53268;DHT22;39156;51.176;6.738;2023-01-10T08:17:21;4.70;75.60
53268;DHT22;39156;51.176;6.738;2023-01-10T08:19:47;4.70;75.50
53268;DHT22;39156;51.176;6.738;2023-01-10T08:22:13;4.70;75.50
53268;DHT22;39156;51.176;6.738;2023-01-10T08:24:38;4.70;75.60
53268;DHT22;39156;51.176;6.738;2023-01-10T08:27:04;4.70;75.60
53268;DHT22;39156;51.176;6.738;2023-01-10T08:29:30;4.80;75.60
53268;DHT22;39156;51.176;6.738;2023-01-10T08:31:56;4.80;75.60
53268;DHT22;39156;51.176;6.738;2023-01-10T08:34:22;4.80;75.80
53268;DHT22;39156;51.176;6.738;2023-01-10T08:36:52;4.80;75.70
53268;DHT22;39156;51.176;6.738;2023-01-10T08:39:19;4.90;76.00
53268;DHT22;39156;51.176;6.738;2023-01-10T08:41:47;4.90;75.80
53268;DHT22;39156;51.176;6.738;2023-01-10T08:44:13;4.90;75.80
53268;DHT22;39156;51.176;6.738;2023-01-10T08:46:40;5.10;76.00
53268;DHT22;39156;51.176;6.738;2023-01-10T08:49:07;5.10;76.10
53268;DHT22;39156;51.176;6.738;2023-01-10T08:51:32;5.30;76.50
53268;DHT22;39156;51.176;6.738;2023-01-10T08:53:58;5.40;77.00
53268;DHT22;39156;51.176;6.738;2023-01-10T08:56:24;5.70;77.20
53268;DHT22;39156;51.176;6.738;2023-01-10T08:58:50;5.80;77.40
53268;DHT22;39156;51.176;6.738;2023-01-10T09:01:16;6.10;76.90
53268;DHT22;39156;51.176;6.738;2023-01-10T09:03:41;6.50;76.60
53268;DHT22;39156;51.176;6.738;2023-01-10T09:06:07;6.70;76.60
53268;DHT22;39156;51.176;6.738;2023-01-10T09:08:34;7.10;75.90
53268;DHT22;39156;51.176;6.738;2023-01-10T09:11:00;7.40;75.50
53268;DHT22;39156;51.176;6.738;2023-01-10T09:13:27;7.80;75.00
53268;DHT22;39156;51.176;6.738;2023-01-10T09:15:53;8.00;73.70
53268;DHT22;39156;51.176;6.738;2023-01-10T09:18:19;8.30;73.30
53268;DHT22;39156;51.176;6.738;2023-01-10T09:20:45;8.60;72.50
53268;DHT22;39156;51.176;6.738;2023-01-10T09:23:13;8.80;72.00
53268;DHT22;39156;51.176;6.738;2023-01-10T09:25:42;9.10;71.20
53268;DHT22;39156;51.176;6.738;2023-01-10T09:28:08;9.40;71.10
53268;DHT22;39156;51.176;6.738;2023-01-10T09:30:34;9.60;70.80
53268;DHT22;39156;51.176;6.738;2023-01-10T09:33:01;9.80;70.00
53268;DHT22;39156;51.176;6.738;2023-01-10T09:35:28;10.10;69.40
53268;DHT22;39156;51.176;6.738;2023-01-10T09:37:56;10.40;68.80
53268;DHT22;39156;51.176;6.738;2023-01-10T09:40:38;10.60;68.10
53268;DHT22;39156;51.176;6.738;2023-01-10T09:49:02;11.00;65.50
53268;DHT22;39156;51.176;6.738;2023-01-10T09:51:40;11.10;64.30
53268;DHT22;39156;51.176;6.738;2023-01-10T09:54:27;11.10;64.10
53268;DHT22;39156;51.176;6.738;2023-01-10T09:56:55;11.10;64.00
53268;DHT22;39156;51.176;6.738;2023-01-10T09:59:25;11.10;64.30
53268;DHT22;39156;51.176;6.738;2023-01-10T10:02:13;11.10;63.90
53268;DHT22;39156;51.176;6.738;2023-01-10T10:05:20;11.10;63.50
53268;DHT22;39156;51.176;6.738;2023-01-10T10:07:55;11.10;62.80
53268;DHT22;39156;51.176;6.738;2023-01-10T10:10:39;11.10;63.40
53268;DHT22;39156;51.176;6.738;2023-01-10T10:13:33;11.10;63.10
53268;DHT22;39156;51.176;6.738;2023-01-10T10:19:22;11.10;62.20
53268;DHT22;39156;51.176;6.738;2023-01-10T10:22:11;11.10;62.20
53268;DHT22;39156;51.176;6.738;2023-01-10T10:25:27;11.00;62.70
53268;DHT22;39156;51.176;6.738;2023-01-10T10:28:28;11.00;62.40
53268;DHT22;39156;51.176;6.738;2023-01-10T10:34:22;10.90;62.20
53268;DHT22;39156;51.176;6.738;2023-01-10T10:39:50;10.90;62.20
53268;DHT22;39156;51.176;6.738;2023-01-10T10:42:19;10.80;61.80
53268;DHT22;39156;51.176;6.738;2023-01-10T10:44:51;10.80;62.80
53268;DHT22;39156;51.176;6.738;2023-01-10T10:47:20;10.80;62.60
53268;DHT22;39156;51.176;6.738;2023-01-10T10:49:58;10.80;62.60
53268;DHT22;39156;51.176;6.738;2023-01-10T10:52:40;10.80;62.00
53268;DHT22;39156;51.176;6.738;2023-01-10T10:55:11;10.90;62.90
53268;DHT22;39156;51.176;6.738;2023-01-10T10:57:39;10.90;63.20
53268;DHT22;39156;51.176;6.738;2023-01-10T11:00:06;10.90;62.60
53268;DHT22;39156;51.176;6.738;2023-01-10T11:02:40;10.90;62.50
53268;DHT22;39156;51.176;6.738;2023-01-10T11:05:22;10.80;62.00
53268;DHT22;39156;51.176;6.738;2023-01-10T11:08:00;10.90;61.90
53268;DHT22;39156;51.176;6.738;2023-01-10T11:10:32;10.80;62.00
53268;DHT22;39156;51.176;6.738;2023-01-10T11:13:07;10.80;61.70
53268;DHT22;39156;51.176;6.738;2023-01-10T11:15:45;10.70;61.40
53268;DHT22;39156;51.176;6.738;2023-01-10T11:18:13;10.60;61.40
53268;DHT22;39156;51.176;6.738;2023-01-10T11:26:52;10.30;61.80
53268;DHT22;39156;51.176;6.738;2023-01-10T11:29:13;10.30;62.10
53268;DHT22;39156;51.176;6.738;2023-01-10T11:31:41;10.30;62.70
53268;DHT22;39156;51.176;6.738;2023-01-10T11:34:22;10.20;62.70
53268;DHT22;39156;51.176;6.738;2023-01-10T11:36:56;10.10;62.30
53268;DHT22;39156;51.176;6.738;2023-01-10T11:39:22;10.10;62.50
53268;DHT22;39156;51.176;6.738;2023-01-10T11:41:48;10.10;62.60
53268;DHT22;39156;51.176;6.738;2023-01-10T11:44:22;10.10;62.90
53268;DHT22;39156;51.176;6.738;2023-01-10T11:46:55;10.00;62.80
53268;DHT22;39156;51.176;6.738;2023-01-10T11:49:37;10.00;63.10
53268;DHT22;39156;51.176;6.738;2023-01-10T11:52:23;9.90;63.00
53268;DHT22;39156;51.176;6.738;2023-01-10T11:54:51;10.00;63.20
53268;DHT22;39156;51.176;6.738;2023-01-10T11:57:21;9.90;63.30
53268;DHT22;39156;51.176;6.738;2023-01-10T11:59:55;9.90;63.10
53268;DHT22;39156;51.176;6.738;2023-01-10T12:02:32;10.00;63.10
53268;DHT22;39156;51.176;6.738;2023-01-10T12:05:03;9.90;63.20
53268;DHT22;39156;51.176;6.738;2023-01-10T12:08:00;9.90;62.90
53268;DHT22;39156;51.176;6.738;2023-01-10T12:10:31;9.90;62.40
53268;DHT22;39156;51.176;6.738;2023-01-10T12:12:59;10.00;62.90
53268;DHT22;39156;51.176;6.738;2023-01-10T12:15:38;9.90;62.50
53268;DHT22;39156;51.176;6.738;2023-01-10T12:18:04;9.90;62.70
53268;DHT22;39156;51.176;6.738;2023-01-10T12:20:34;9.90;62.60
53268;DHT22;39156;51.176;6.738;2023-01-10T12:23:09;9.80;62.60
53268;DHT22;39156;51.176;6.738;2023-01-10T12:25:41;9.90;62.40
53268;DHT22;39156;51.176;6.738;2023-01-10T12:28:20;9.80;62.00
53268;DHT22;39156;51.176;6.738;2023-01-10T12:30:48;9.80;61.80
53268;DHT22;39156;51.176;6.738;2023-01-10T12:33:22;9.80;62.00
53268;DHT22;39156;51.176;6.738;2023-01-10T12:35:52;9.80;62.10
53268;DHT22;39156;51.176;6.738;2023-01-10T12:38:45;9.70;62.10
53268;DHT22;39156;51.176;6.738;2023-01-10T12:41:45;9.80;61.90
53268;DHT22;39156;51.176;6.738;2023-01-10T12:44:39;9.70;61.60
53268;DHT22;39156;51.176;6.738;2023-01-10T12:47:32;9.80;62.00
53268;DHT22;39156;51.176;6.738;2023-01-10T12:50:20;9.70;62.10
53268;DHT22;39156;51.176;6.738;2023-01-10T12:52:57;9.60;61.50
53268;DHT22;39156;51.176;6.738;2023-01-10T12:55:29;9.60;62.20
53268;DHT22;39156;51.176;6.738;2023-01-10T12:58:00;9.60;62.10
53268;DHT22;39156;51.176;6.738;2023-01-10T13:00:35;9.70;61.90
53268;DHT22;39156;51.176;6.738;2023-01-10T13:03:09;9.60;62.20
53268;DHT22;39156;51.176;6.738;2023-01-10T13:05:37;9.60;62.20
53268;DHT22;39156;51.176;6.738;2023-01-10T13:08:11;9.60;62.40
53268;DHT22;39156;51.176;6.738;2023-01-10T13:10:40;9.50;61.90
53268;DHT22;39156;51.176;6.738;2023-01-10T13:19:15;9.50;61.40
53268;DHT22;39156;51.176;6.738;2023-01-10T13:21:46;9.40;61.20
53268;DHT22;39156;51.176;6.738;2023-01-10T13:24:22;9.40;61.50
53268;DHT22;39156;51.176;6.738;2023-01-10T13:26:59;9.50;61.60
53268;DHT22;39156;51.176;6.738;2023-01-10T13:29:42;9.40;61.70
53268;DHT22;39156;51.176;6.738;2023-01-10T13:32:20;9.40;61.40
53268;DHT22;39156;51.176;6.738;2023-01-10T13:34:48;9.30;61.70
53268;DHT22;39156;51.176;6.738;2023-01-10T13:37:22;9.30;61.60
53268;DHT22;39156;51.176;6.738;2023-01-10T13:39:57;9.20;61.40
53268;DHT22;39156;51.176;6.738;2023-01-10T13:42:35;9.20;61.40
53268;DHT22;39156;51.176;6.738;2023-01-10T13:45:23;9.20;61.40
53268;DHT22;39156;51.176;6.738;2023-01-10T14:00:47;8.90;61.80
53268;DHT22;39156;51.176;6.738;2023-01-10T14:03:48;8.80;62.10
53268;DHT22;39156;51.176;6.738;2023-01-10T14:08:59;8.80;62.40
53268;DHT22;39156;51.176;6.738;2023-01-10T14:11:52;8.70;62.40
53268;DHT22;39156;51.176;6.738;2023-01-10T14:14:40;8.80;62.50
53268;DHT22;39156;51.176;6.738;2023-01-10T14:19:42;8.80;62.40
53268;DHT22;39156;51.176;6.738;2023-01-10T14:22:27;8.70;62.30
53268;DHT22;39156;51.176;6.738;2023-01-10T14:24:56;8.60;62.30
53268;DHT22;39156;51.176;6.738;2023-01-10T14:27:23;8.60;62.20
53268;DHT22;39156;51.176;6.738;2023-01-10T14:29:57;8.60;62.30
53268;DHT22;39156;51.176;6.738;2023-01-10T14:35:02;8.50;62.50
53268;DHT22;39156;51.176;6.738;2023-01-10T14:37:42;8.50;62.70
53268;DHT22;39156;51.176;6.738;2023-01-10T14:40:25;8.40;63.00
53268;DHT22;39156;51.176;6.738;2023-01-10T14:42:52;8.40;62.70
53268;DHT22;39156;51.176;6.738;2023-01-10T14:45:37;8.40;62.80
53268;DHT22;39156;51.176;6.738;2023-01-10T14:48:24;8.40;63.10
53268;DHT22;39156;51.176;6.738;2023-01-10T14:53:33;8.20;63.10
53268;DHT22;39156;51.176;6.738;2023-01-10T14:55:59;8.20;63.20
53268;DHT22;39156;51.176;6.738;2023-01-10T14:58:25;8.10;63.30
53268;DHT22;39156;51.176;6.738;2023-01-10T15:00:53;8.20;63.20
53268;DHT22;39156;51.176;6.738;2023-01-10T15:03:22;8.10;63.30
53268;DHT22;39156;51.176;6.738;2023-01-10T15:05:53;8.00;63.30
53268;DHT22;39156;51.176;6.738;2023-01-10T15:08:27;8.00;63.40
53268;DHT22;39156;51.176;6.738;2023-01-10T15:11:02;8.00;63.30
53268;DHT22;39156;51.176;6.738;2023-01-10T15:13:34;7.90;63.30
53268;DHT22;39156;51.176;6.738;2023-01-10T15:16:01;7.90;63.40
53268;DHT22;39156;51.176;6.738;2023-01-10T15:21:02;7.80;63.60
53268;DHT22;39156;51.176;6.738;2023-01-10T15:23:37;7.90;63.50
53268;DHT22;39156;51.176;6.738;2023-01-10T15:26:07;7.80;63.60
53268;DHT22;39156;51.176;6.738;2023-01-10T15:28:35;7.80;63.80
53268;DHT22;39156;51.176;6.738;2023-01-10T15:31:05;7.80;63.80
53268;DHT22;39156;51.176;6.738;2023-01-10T15:33:34;7.80;63.90
53268;DHT22;39156;51.176;6.738;2023-01-10T15:36:06;7.70;64.00
53268;DHT22;39156;51.176;6.738;2023-01-10T15:38:37;7.70;64.30
53268;DHT22;39156;51.176;6.738;2023-01-10T15:41:04;7.70;64.50
53268;DHT22;39156;51.176;6.738;2023-01-10T15:43:32;7.70;64.90
53268;DHT22;39156;51.176;6.738;2023-01-10T15:46:01;7.70;65.10
53268;DHT22;39156;51.176;6.738;2023-01-10T15:48:39;7.60;65.30
53268;DHT22;39156;51.176;6.738;2023-01-10T15:51:21;7.60;65.80
53268;DHT22;39156;51.176;6.738;2023-01-10T15:54:26;7.70;66.40
53268;DHT22;39156;51.176;6.738;2023-01-10T15:57:02;7.60;66.50
53268;DHT22;39156;51.176;6.738;2023-01-10T15:59:31;7.60;67.00
53268;DHT22;39156;51.176;6.738;2023-01-10T16:02:21;7.50;67.20
53268;DHT22;39156;51.176;6.738;2023-01-10T16:04:47;7.50;67.90
53268;DHT22;39156;51.176;6.738;2023-01-10T16:09:59;7.40;68.10
53268;DHT22;39156;51.176;6.738;2023-01-10T16:12:39;7.40;68.00
53268;DHT22;39156;51.176;6.738;2023-01-10T16:15:28;7.30;68.40
53268;DHT22;39156;51.176;6.738;2023-01-10T16:17:59;7.30;68.40
53268;DHT22;39156;51.176;6.738;2023-01-10T16:20:39;7.30;69.00
53268;DHT22;39156;51.176;6.738;2023-01-10T16:23:13;7.20;69.30
53268;DHT22;39156;51.176;6.738;2023-01-10T16:25:44;7.10;69.50
53268;DHT22;39156;51.176;6.738;2023-01-10T16:28:13;7.20;69.90
53268;DHT22;39156;51.176;6.738;2023-01-10T16:30:40;7.10;70.20
53268;DHT22;39156;51.176;6.738;2023-01-10T16:33:16;7.00;70.50
53268;DHT22;39156;51.176;6.738;2023-01-10T16:35:48;7.00;70.90
53268;DHT22;39156;51.176;6.738;2023-01-10T16:38:16;6.90;71.30
53268;DHT22;39156;51.176;6.738;2023-01-10T16:40:50;6.90;71.40
53268;DHT22;39156;51.176;6.738;2023-01-10T16:43:53;6.80;71.80
53268;DHT22;39156;51.176;6.738;2023-01-10T16:46:19;6.80;71.80
53268;DHT22;39156;51.176;6.738;2023-01-10T16:48:44;6.90;72.20
53268;DHT22;39156;51.176;6.738;2023-01-10T16:51:17;6.80;72.30
53268;DHT22;39156;51.176;6.738;2023-01-10T16:53:45;6.80;72.80
53268;DHT22;39156;51.176;6.738;2023-01-10T16:56:17;6.70;72.80
53268;DHT22;39156;51.176;6.738;2023-01-10T16:58:46;6.70;73.10
53268;DHT22;39156;51.176;6.738;2023-01-10T17:01:18;6.70;73.20
53268;DHT22;39156;51.176;6.738;2023-01-10T17:03:48;6.70;73.60
53268;DHT22;39156;51.176;6.738;2023-01-10T17:06:15;6.60;73.60
53268;DHT22;39156;51.176;6.738;2023-01-10T17:08:41;6.60;73.90
53268;DHT22;39156;51.176;6.738;2023-01-10T17:11:15;6.50;74.00
53268;DHT22;39156;51.176;6.738;2023-01-10T17:13:43;6.60;74.50
53268;DHT22;39156;51.176;6.738;2023-01-10T17:16:10;6.50;74.40
53268;DHT22;39156;51.176;6.738;2023-01-10T17:18:36;6.50;74.60
53268;DHT22;39156;51.176;6.738;2023-01-10T17:21:03;6.60;74.80
53268;DHT22;39156;51.176;6.738;2023-01-10T17:23:29;6.50;75.00
53268;DHT22;39156;51.176;6.738;2023-01-10T17:26:03;6.50;75.10
53268;DHT22;39156;51.176;6.738;2023-01-10T17:28:30;6.50;75.60
53268;DHT22;39156;51.176;6.738;2023-01-10T17:30:57;6.40;75.50
53268;DHT22;39156;51.176;6.738;2023-01-10T17:33:25;6.40;75.70